sensor_id;sensor_type;location;lat;lon;timestamp;P1;durP1;ratioP1;P2;durP2;ratioP2
60973;SDS011;46846;51.528;5.076;2023-03-01T00:01:36;47.95;;;44.97;;
60973;SDS011;46846;51.528;5.076;2023-03-01T00:04:02;53.30;;;49.47;;
60973;SDS011;46846;51.528;5.076;2023-03-01T00:06:27;47.50;;;44.57;;
60973;SDS011;46846;51.528;5.076;2023-03-01T00:08:53;53.58;;;50.08;;
60973;SDS011;46846;51.528;5.076;2023-03-01T00:11:20;50.83;;;47.45;;
60973;SDS011;46846;51.528;5.076;2023-03-01T00:13:48;46.10;;;43.10;;
60973;SDS011;46846;51.528;5.076;2023-03-01T00:16:16;51.60;;;48.20;;
60973;SDS011;46846;51.528;5.076;2023-03-01T00:18:46;48.03;;;45.03;;
60973;SDS011;46846;51.528;5.076;2023-03-01T00:21:12;49.50;;;46.30;;
60973;SDS011;46846;51.528;5.076;2023-03-01T00:23:37;47.55;;;44.40;;
60973;SDS011;46846;51.528;5.076;2023-03-01T00:26:07;47.72;;;44.63;;
60973;SDS011;46846;51.528;5.076;2023-03-01T00:28:35;47.67;;;44.58;;
60973;SDS011;46846;51.528;5.076;2023-03-01T00:31:05;50.30;;;46.95;;
60973;SDS011;46846;51.528;5.076;2023-03-01T00:33:35;49.45;;;46.33;;
60973;SDS011;46846;51.528;5.076;2023-03-01T00:36:01;46.33;;;43.42;;
60973;SDS011;46846;51.528;5.076;2023-03-01T00:40:52;44.88;;;42.03;;
60973;SDS011;46846;51.528;5.076;2023-03-01T00:43:18;44.70;;;42.00;;
60973;SDS011;46846;51.528;5.076;2023-03-01T00:45:44;49.40;;;46.40;;
60973;SDS011;46846;51.528;5.076;2023-03-01T00:50:35;41.35;;;38.72;;
60973;SDS011;46846;51.528;5.076;2023-03-01T00:53:00;47.25;;;44.25;;
60973;SDS011;46846;51.528;5.076;2023-03-01T00:55:25;46.40;;;43.40;;
60973;SDS011;46846;51.528;5.076;2023-03-01T00:57:51;47.22;;;44.13;;
60973;SDS011;46846;51.528;5.076;2023-03-01T01:00:17;46.33;;;43.25;;
60973;SDS011;46846;51.528;5.076;2023-03-01T01:02:44;48.03;;;44.97;;
60973;SDS011;46846;51.528;5.076;2023-03-01T01:05:10;46.88;;;43.85;;
60973;SDS011;46846;51.528;5.076;2023-03-01T01:07:36;47.65;;;44.72;;
60973;SDS011;46846;51.528;5.076;2023-03-01T01:10:02;48.70;;;45.47;;
60973;SDS011;46846;51.528;5.076;2023-03-01T01:12:27;44.65;;;41.90;;
60973;SDS011;46846;51.528;5.076;2023-03-01T01:14:53;46.08;;;43.15;;
60973;SDS011;46846;51.528;5.076;2023-03-01T01:17:18;50.47;;;47.37;;
60973;SDS011;46846;51.528;5.076;2023-03-01T01:19:44;49.92;;;46.55;;
60973;SDS011;46846;51.528;5.076;2023-03-01T01:22:09;47.10;;;44.10;;
60973;SDS011;46846;51.528;5.076;2023-03-01T01:24:35;47.40;;;44.27;;
60973;SDS011;46846;51.528;5.076;2023-03-01T01:27:00;49.10;;;45.95;;
60973;SDS011;46846;51.528;5.076;2023-03-01T01:29:26;47.08;;;43.78;;
60973;SDS011;46846;51.528;5.076;2023-03-01T01:31:51;47.95;;;44.97;;
60973;SDS011;46846;51.528;5.076;2023-03-01T01:34:20;49.78;;;46.38;;
60973;SDS011;46846;51.528;5.076;2023-03-01T01:36:50;47.30;;;44.30;;
60973;SDS011;46846;51.528;5.076;2023-03-01T01:39:19;49.13;;;44.65;;
60973;SDS011;46846;51.528;5.076;2023-03-01T01:41:45;46.70;;;43.67;;
60973;SDS011;46846;51.528;5.076;2023-03-01T01:44:18;51.92;;;48.22;;
60973;SDS011;46846;51.528;5.076;2023-03-01T01:49:26;52.63;;;49.13;;
60973;SDS011;46846;51.528;5.076;2023-03-01T01:52:07;43.50;;;40.70;;
60973;SDS011;46846;51.528;5.076;2023-03-01T01:57:07;46.17;;;43.33;;
60973;SDS011;46846;51.528;5.076;2023-03-01T01:59:36;49.72;;;46.58;;
60973;SDS011;46846;51.528;5.076;2023-03-01T02:02:04;45.80;;;43.03;;
60973;SDS011;46846;51.528;5.076;2023-03-01T02:04:30;49.53;;;46.13;;
60973;SDS011;46846;51.528;5.076;2023-03-01T02:07:01;47.47;;;44.53;;
60973;SDS011;46846;51.528;5.076;2023-03-01T02:09:34;45.15;;;42.35;;
60973;SDS011;46846;51.528;5.076;2023-03-01T02:12:01;50.92;;;47.55;;
60973;SDS011;46846;51.528;5.076;2023-03-01T02:14:27;46.35;;;43.47;;
60973;SDS011;46846;51.528;5.076;2023-03-01T02:16:53;48.20;;;44.97;;
60973;SDS011;46846;51.528;5.076;2023-03-01T02:19:23;47.55;;;44.58;;
60973;SDS011;46846;51.528;5.076;2023-03-01T02:22:08;47.90;;;44.78;;
60973;SDS011;46846;51.528;5.076;2023-03-01T02:25:25;47.60;;;44.40;;
60973;SDS011;46846;51.528;5.076;2023-03-01T02:28:05;46.90;;;44.10;;
60973;SDS011;46846;51.528;5.076;2023-03-01T02:30:44;42.78;;;40.03;;
60973;SDS011;46846;51.528;5.076;2023-03-01T02:33:31;48.80;;;45.70;;
60973;SDS011;46846;51.528;5.076;2023-03-01T02:36:02;46.47;;;43.63;;
60973;SDS011;46846;51.528;5.076;2023-03-01T02:38:31;50.10;;;46.75;;
60973;SDS011;46846;51.528;5.076;2023-03-01T02:40:57;45.08;;;42.38;;
60973;SDS011;46846;51.528;5.076;2023-03-01T02:43:23;43.58;;;40.85;;
60973;SDS011;46846;51.528;5.076;2023-03-01T02:45:56;49.25;;;45.53;;
60973;SDS011;46846;51.528;5.076;2023-03-01T02:48:23;46.35;;;43.30;;
60973;SDS011;46846;51.528;5.076;2023-03-01T02:51:01;51.30;;;47.80;;
60973;SDS011;46846;51.528;5.076;2023-03-01T02:56:40;43.72;;;41.03;;
60973;SDS011;46846;51.528;5.076;2023-03-01T02:59:07;46.58;;;43.65;;
60973;SDS011;46846;51.528;5.076;2023-03-01T03:01:34;47.38;;;44.28;;
60973;SDS011;46846;51.528;5.076;2023-03-01T03:04:07;49.38;;;46.22;;
60973;SDS011;46846;51.528;5.076;2023-03-01T03:06:35;45.10;;;42.20;;
60973;SDS011;46846;51.528;5.076;2023-03-01T03:09:00;47.22;;;44.33;;
60973;SDS011;46846;51.528;5.076;2023-03-01T03:11:26;46.15;;;43.30;;
60973;SDS011;46846;51.528;5.076;2023-03-01T03:13:51;49.90;;;46.73;;
60973;SDS011;46846;51.528;5.076;2023-03-01T03:16:17;45.85;;;42.55;;
60973;SDS011;46846;51.528;5.076;2023-03-01T03:18:43;47.38;;;44.42;;
60973;SDS011;46846;51.528;5.076;2023-03-01T03:21:09;46.92;;;43.95;;
60973;SDS011;46846;51.528;5.076;2023-03-01T03:23:36;46.83;;;43.70;;
60973;SDS011;46846;51.528;5.076;2023-03-01T03:26:02;47.42;;;44.63;;
60973;SDS011;46846;51.528;5.076;2023-03-01T03:28:29;45.53;;;42.45;;
60973;SDS011;46846;51.528;5.076;2023-03-01T03:30:58;42.08;;;39.60;;
60973;SDS011;46846;51.528;5.076;2023-03-01T03:33:28;44.30;;;41.53;;
60973;SDS011;46846;51.528;5.076;2023-03-01T03:35:56;47.35;;;44.17;;
60973;SDS011;46846;51.528;5.076;2023-03-01T03:38:22;44.65;;;41.95;;
60973;SDS011;46846;51.528;5.076;2023-03-01T03:40:49;45.83;;;42.92;;
60973;SDS011;46846;51.528;5.076;2023-03-01T03:43:27;46.88;;;43.53;;
60973;SDS011;46846;51.528;5.076;2023-03-01T03:45:54;43.55;;;40.85;;
60973;SDS011;46846;51.528;5.076;2023-03-01T03:48:21;49.63;;;46.05;;
60973;SDS011;46846;51.528;5.076;2023-03-01T03:50:49;48.40;;;45.35;;
60973;SDS011;46846;51.528;5.076;2023-03-01T03:53:16;47.85;;;44.83;;
60973;SDS011;46846;51.528;5.076;2023-03-01T03:55:43;46.45;;;43.70;;
60973;SDS011;46846;51.528;5.076;2023-03-01T03:58:09;45.60;;;42.72;;
60973;SDS011;46846;51.528;5.076;2023-03-01T04:00:36;44.03;;;41.22;;
60973;SDS011;46846;51.528;5.076;2023-03-01T04:03:03;42.92;;;40.33;;
60973;SDS011;46846;51.528;5.076;2023-03-01T04:05:29;44.22;;;41.55;;
60973;SDS011;46846;51.528;5.076;2023-03-01T04:07:55;45.88;;;43.17;;
60973;SDS011;46846;51.528;5.076;2023-03-01T04:10:31;47.67;;;44.67;;
60973;SDS011;46846;51.528;5.076;2023-03-01T04:12:58;45.38;;;42.58;;
60973;SDS011;46846;51.528;5.076;2023-03-01T04:15:24;42.17;;;39.53;;
60973;SDS011;46846;51.528;5.076;2023-03-01T04:17:51;46.08;;;43.10;;
60973;SDS011;46846;51.528;5.076;2023-03-01T04:20:19;47.15;;;44.10;;
60973;SDS011;46846;51.528;5.076;2023-03-01T04:22:56;47.30;;;43.70;;
60973;SDS011;46846;51.528;5.076;2023-03-01T04:25:24;43.47;;;40.88;;
60973;SDS011;46846;51.528;5.076;2023-03-01T04:27:49;48.80;;;45.70;;
60973;SDS011;46846;51.528;5.076;2023-03-01T04:30:15;42.90;;;40.33;;
60973;SDS011;46846;51.528;5.076;2023-03-01T04:32:40;46.60;;;43.65;;
60973;SDS011;46846;51.528;5.076;2023-03-01T04:35:06;46.30;;;43.40;;
60973;SDS011;46846;51.528;5.076;2023-03-01T04:37:32;42.00;;;39.38;;
60973;SDS011;46846;51.528;5.076;2023-03-01T04:39:57;43.80;;;41.15;;
60973;SDS011;46846;51.528;5.076;2023-03-01T04:42:23;41.93;;;39.27;;
60973;SDS011;46846;51.528;5.076;2023-03-01T04:44:48;42.17;;;39.57;;
60973;SDS011;46846;51.528;5.076;2023-03-01T04:47:16;45.45;;;42.65;;
60973;SDS011;46846;51.528;5.076;2023-03-01T04:49:42;46.28;;;43.28;;
60973;SDS011;46846;51.528;5.076;2023-03-01T04:52:07;46.37;;;43.23;;
60973;SDS011;46846;51.528;5.076;2023-03-01T04:54:34;43.67;;;41.05;;
60973;SDS011;46846;51.528;5.076;2023-03-01T04:57:01;45.28;;;42.58;;
60973;SDS011;46846;51.528;5.076;2023-03-01T04:59:28;49.72;;;46.22;;
60973;SDS011;46846;51.528;5.076;2023-03-01T05:01:54;46.25;;;43.35;;
60973;SDS011;46846;51.528;5.076;2023-03-01T05:04:21;45.53;;;42.75;;
60973;SDS011;46846;51.528;5.076;2023-03-01T05:06:47;50.20;;;46.70;;
60973;SDS011;46846;51.528;5.076;2023-03-01T05:09:13;44.30;;;41.55;;
60973;SDS011;46846;51.528;5.076;2023-03-01T05:11:38;46.30;;;43.53;;
60973;SDS011;46846;51.528;5.076;2023-03-01T05:14:04;45.67;;;42.90;;
60973;SDS011;46846;51.528;5.076;2023-03-01T05:16:31;46.72;;;43.63;;
60973;SDS011;46846;51.528;5.076;2023-03-01T05:21:22;41.00;;;38.17;;
60973;SDS011;46846;51.528;5.076;2023-03-01T05:23:48;41.07;;;38.50;;
60973;SDS011;46846;51.528;5.076;2023-03-01T05:26:14;45.33;;;42.53;;
60973;SDS011;46846;51.528;5.076;2023-03-01T05:28:40;44.05;;;41.25;;
60973;SDS011;46846;51.528;5.076;2023-03-01T05:31:06;40.60;;;38.03;;
60973;SDS011;46846;51.528;5.076;2023-03-01T05:33:35;42.53;;;39.83;;
60973;SDS011;46846;51.528;5.076;2023-03-01T05:36:05;42.35;;;38.72;;
60973;SDS011;46846;51.528;5.076;2023-03-01T05:38:32;42.05;;;39.45;;
60973;SDS011;46846;51.528;5.076;2023-03-01T05:43:23;40.92;;;38.50;;
60973;SDS011;46846;51.528;5.076;2023-03-01T05:45:49;44.10;;;41.40;;
60973;SDS011;46846;51.528;5.076;2023-03-01T05:48:14;42.78;;;39.97;;
60973;SDS011;46846;51.528;5.076;2023-03-01T05:50:40;44.53;;;41.72;;
60973;SDS011;46846;51.528;5.076;2023-03-01T05:53:12;43.70;;;41.03;;
60973;SDS011;46846;51.528;5.076;2023-03-01T05:55:40;42.97;;;40.38;;
60973;SDS011;46846;51.528;5.076;2023-03-01T05:58:07;43.78;;;41.10;;
60973;SDS011;46846;51.528;5.076;2023-03-01T06:00:36;46.40;;;43.55;;
60973;SDS011;46846;51.528;5.076;2023-03-01T06:03:02;44.65;;;41.65;;
60973;SDS011;46846;51.528;5.076;2023-03-01T06:05:28;42.58;;;39.85;;
60973;SDS011;46846;51.528;5.076;2023-03-01T06:07:54;40.67;;;38.10;;
60973;SDS011;46846;51.528;5.076;2023-03-01T06:10:20;41.75;;;39.25;;
60973;SDS011;46846;51.528;5.076;2023-03-01T06:12:46;43.17;;;40.55;;
60973;SDS011;46846;51.528;5.076;2023-03-01T06:15:13;46.17;;;43.17;;
60973;SDS011;46846;51.528;5.076;2023-03-01T06:17:41;44.38;;;41.58;;
60973;SDS011;46846;51.528;5.076;2023-03-01T06:22:35;44.30;;;40.78;;
60973;SDS011;46846;51.528;5.076;2023-03-01T06:25:01;45.05;;;42.25;;
60973;SDS011;46846;51.528;5.076;2023-03-01T06:27:26;41.97;;;39.50;;
60973;SDS011;46846;51.528;5.076;2023-03-01T06:29:52;41.37;;;38.60;;
60973;SDS011;46846;51.528;5.076;2023-03-01T06:32:17;42.88;;;40.28;;
60973;SDS011;46846;51.528;5.076;2023-03-01T06:34:43;42.35;;;39.75;;
60973;SDS011;46846;51.528;5.076;2023-03-01T06:37:09;45.80;;;42.53;;
60973;SDS011;46846;51.528;5.076;2023-03-01T06:39:34;44.65;;;41.95;;
60973;SDS011;46846;51.528;5.076;2023-03-01T06:42:00;44.40;;;41.50;;
60973;SDS011;46846;51.528;5.076;2023-03-01T06:44:25;40.42;;;37.72;;
60973;SDS011;46846;51.528;5.076;2023-03-01T06:46:51;45.08;;;42.13;;
60973;SDS011;46846;51.528;5.076;2023-03-01T06:49:16;41.93;;;39.13;;
60973;SDS011;46846;51.528;5.076;2023-03-01T06:54:08;40.22;;;37.72;;
60973;SDS011;46846;51.528;5.076;2023-03-01T06:56:33;41.83;;;39.27;;
60973;SDS011;46846;51.528;5.076;2023-03-01T06:58:58;43.37;;;40.57;;
60973;SDS011;46846;51.528;5.076;2023-03-01T07:01:24;43.53;;;40.73;;
60973;SDS011;46846;51.528;5.076;2023-03-01T07:03:50;42.92;;;40.13;;
60973;SDS011;46846;51.528;5.076;2023-03-01T07:06:15;41.65;;;39.10;;
60973;SDS011;46846;51.528;5.076;2023-03-01T07:08:41;45.88;;;42.80;;
60973;SDS011;46846;51.528;5.076;2023-03-01T07:11:06;43.07;;;39.97;;
60973;SDS011;46846;51.528;5.076;2023-03-01T07:13:32;43.00;;;40.30;;
60973;SDS011;46846;51.528;5.076;2023-03-01T07:15:57;46.13;;;43.10;;
60973;SDS011;46846;51.528;5.076;2023-03-01T07:18:23;44.73;;;41.90;;
60973;SDS011;46846;51.528;5.076;2023-03-01T07:20:48;45.38;;;42.63;;
60973;SDS011;46846;51.528;5.076;2023-03-01T07:23:14;44.95;;;42.05;;
60973;SDS011;46846;51.528;5.076;2023-03-01T07:25:40;44.50;;;41.75;;
60973;SDS011;46846;51.528;5.076;2023-03-01T07:28:05;46.45;;;43.55;;
60973;SDS011;46846;51.528;5.076;2023-03-01T07:30:31;45.78;;;42.63;;
60973;SDS011;46846;51.528;5.076;2023-03-01T07:32:57;39.65;;;37.15;;
60973;SDS011;46846;51.528;5.076;2023-03-01T07:35:23;45.88;;;42.65;;
60973;SDS011;46846;51.528;5.076;2023-03-01T07:37:50;45.22;;;42.40;;
60973;SDS011;46846;51.528;5.076;2023-03-01T07:40:15;49.08;;;45.75;;
60973;SDS011;46846;51.528;5.076;2023-03-01T07:42:41;42.47;;;39.67;;
60973;SDS011;46846;51.528;5.076;2023-03-01T07:45:06;43.10;;;40.20;;
60973;SDS011;46846;51.528;5.076;2023-03-01T07:49:58;43.28;;;40.63;;
60973;SDS011;46846;51.528;5.076;2023-03-01T07:52:23;36.57;;;34.37;;
60973;SDS011;46846;51.528;5.076;2023-03-01T07:54:49;44.88;;;42.08;;
60973;SDS011;46846;51.528;5.076;2023-03-01T07:57:14;47.33;;;44.00;;
60973;SDS011;46846;51.528;5.076;2023-03-01T07:59:40;44.67;;;41.95;;
60973;SDS011;46846;51.528;5.076;2023-03-01T08:02:05;42.25;;;39.58;;
60973;SDS011;46846;51.528;5.076;2023-03-01T08:04:31;45.67;;;42.70;;
60973;SDS011;46846;51.528;5.076;2023-03-01T08:06:58;42.22;;;39.35;;
60973;SDS011;46846;51.528;5.076;2023-03-01T08:09:23;43.55;;;40.65;;
60973;SDS011;46846;51.528;5.076;2023-03-01T08:11:49;47.05;;;43.90;;
60973;SDS011;46846;51.528;5.076;2023-03-01T08:14:14;44.93;;;42.23;;
60973;SDS011;46846;51.528;5.076;2023-03-01T08:16:40;42.73;;;40.07;;
60973;SDS011;46846;51.528;5.076;2023-03-01T08:19:06;44.17;;;40.73;;
60973;SDS011;46846;51.528;5.076;2023-03-01T08:21:35;41.05;;;38.03;;
60973;SDS011;46846;51.528;5.076;2023-03-01T08:24:02;44.08;;;40.92;;
60973;SDS011;46846;51.528;5.076;2023-03-01T08:26:29;45.80;;;42.83;;
60973;SDS011;46846;51.528;5.076;2023-03-01T08:28:55;46.58;;;43.42;;
60973;SDS011;46846;51.528;5.076;2023-03-01T08:31:28;48.05;;;44.75;;
60973;SDS011;46846;51.528;5.076;2023-03-01T08:33:57;42.75;;;39.50;;
60973;SDS011;46846;51.528;5.076;2023-03-01T08:36:25;45.17;;;42.17;;
60973;SDS011;46846;51.528;5.076;2023-03-01T08:38:55;43.65;;;40.35;;
60973;SDS011;46846;51.528;5.076;2023-03-01T08:41:21;46.30;;;42.85;;
60973;SDS011;46846;51.528;5.076;2023-03-01T08:43:47;46.33;;;43.33;;
60973;SDS011;46846;51.528;5.076;2023-03-01T08:46:13;44.03;;;41.15;;
60973;SDS011;46846;51.528;5.076;2023-03-01T08:48:38;43.33;;;40.20;;
60973;SDS011;46846;51.528;5.076;2023-03-01T08:51:11;44.97;;;42.00;;
60973;SDS011;46846;51.528;5.076;2023-03-01T08:53:41;41.53;;;38.67;;
60973;SDS011;46846;51.528;5.076;2023-03-01T08:56:06;43.40;;;40.70;;
60973;SDS011;46846;51.528;5.076;2023-03-01T08:58:33;42.53;;;39.72;;
60973;SDS011;46846;51.528;5.076;2023-03-01T09:00:58;44.30;;;41.25;;
60973;SDS011;46846;51.528;5.076;2023-03-01T09:03:24;44.03;;;40.97;;
60973;SDS011;46846;51.528;5.076;2023-03-01T09:05:51;43.55;;;40.55;;
60973;SDS011;46846;51.528;5.076;2023-03-01T09:08:17;44.22;;;41.20;;
60973;SDS011;46846;51.528;5.076;2023-03-01T09:13:08;43.85;;;40.63;;
60973;SDS011;46846;51.528;5.076;2023-03-01T09:15:36;39.58;;;36.78;;
60973;SDS011;46846;51.528;5.076;2023-03-01T09:18:02;42.05;;;39.28;;
60973;SDS011;46846;51.528;5.076;2023-03-01T09:20:27;44.35;;;41.35;;
60973;SDS011;46846;51.528;5.076;2023-03-01T09:22:53;42.70;;;39.17;;
60973;SDS011;46846;51.528;5.076;2023-03-01T09:25:18;42.93;;;39.87;;
60973;SDS011;46846;51.528;5.076;2023-03-01T09:27:44;43.83;;;40.93;;
60973;SDS011;46846;51.528;5.076;2023-03-01T09:30:09;43.07;;;39.87;;
60973;SDS011;46846;51.528;5.076;2023-03-01T09:32:35;47.03;;;43.85;;
60973;SDS011;46846;51.528;5.076;2023-03-01T09:35:00;43.90;;;40.38;;
60973;SDS011;46846;51.528;5.076;2023-03-01T09:37:28;42.78;;;40.03;;
60973;SDS011;46846;51.528;5.076;2023-03-01T09:39:54;44.92;;;41.67;;
60973;SDS011;46846;51.528;5.076;2023-03-01T09:42:20;43.50;;;40.03;;
60973;SDS011;46846;51.528;5.076;2023-03-01T09:44:54;47.58;;;44.35;;
60973;SDS011;46846;51.528;5.076;2023-03-01T09:47:26;43.28;;;40.25;;
60973;SDS011;46846;51.528;5.076;2023-03-01T09:50:10;47.28;;;43.88;;
60973;SDS011;46846;51.528;5.076;2023-03-01T09:58:27;42.45;;;39.50;;
60973;SDS011;46846;51.528;5.076;2023-03-01T10:06:36;45.58;;;42.47;;
60973;SDS011;46846;51.528;5.076;2023-03-01T10:09:10;41.80;;;39.10;;
60973;SDS011;46846;51.528;5.076;2023-03-01T10:14:27;43.10;;;40.20;;
60973;SDS011;46846;51.528;5.076;2023-03-01T10:19:51;39.13;;;36.67;;
60973;SDS011;46846;51.528;5.076;2023-03-01T10:22:20;43.20;;;39.92;;
60973;SDS011;46846;51.528;5.076;2023-03-01T10:24:49;44.42;;;41.03;;
60973;SDS011;46846;51.528;5.076;2023-03-01T10:27:24;43.90;;;40.95;;
60973;SDS011;46846;51.528;5.076;2023-03-01T10:32:41;43.22;;;40.13;;
60973;SDS011;46846;51.528;5.076;2023-03-01T10:35:23;46.03;;;42.72;;
60973;SDS011;46846;51.528;5.076;2023-03-01T10:40:36;46.40;;;43.33;;
60973;SDS011;46846;51.528;5.076;2023-03-01T10:43:17;46.08;;;42.67;;
60973;SDS011;46846;51.528;5.076;2023-03-01T10:45:42;43.08;;;39.80;;
60973;SDS011;46846;51.528;5.076;2023-03-01T10:50:33;42.65;;;39.70;;
60973;SDS011;46846;51.528;5.076;2023-03-01T10:53:00;44.17;;;41.13;;
60973;SDS011;46846;51.528;5.076;2023-03-01T10:58:34;43.92;;;40.78;;
60973;SDS011;46846;51.528;5.076;2023-03-01T11:03:34;48.95;;;45.63;;
60973;SDS011;46846;51.528;5.076;2023-03-01T11:08:43;45.97;;;42.67;;
60973;SDS011;46846;51.528;5.076;2023-03-01T11:11:15;45.50;;;42.20;;
60973;SDS011;46846;51.528;5.076;2023-03-01T11:13:58;46.50;;;42.92;;
60973;SDS011;46846;51.528;5.076;2023-03-01T11:16:41;47.50;;;43.63;;
60973;SDS011;46846;51.528;5.076;2023-03-01T11:21:34;46.03;;;42.90;;
60973;SDS011;46846;51.528;5.076;2023-03-01T11:24:03;45.00;;;42.20;;
60973;SDS011;46846;51.528;5.076;2023-03-01T11:26:31;45.72;;;42.50;;
60973;SDS011;46846;51.528;5.076;2023-03-01T11:29:05;41.88;;;39.28;;
60973;SDS011;46846;51.528;5.076;2023-03-01T11:31:36;48.97;;;45.60;;
60973;SDS011;46846;51.528;5.076;2023-03-01T11:34:11;46.53;;;43.42;;
60973;SDS011;46846;51.528;5.076;2023-03-01T11:36:42;49.50;;;46.10;;
60973;SDS011;46846;51.528;5.076;2023-03-01T11:42:12;47.58;;;44.33;;
60973;SDS011;46846;51.528;5.076;2023-03-01T11:44:43;46.20;;;42.92;;
60973;SDS011;46846;51.528;5.076;2023-03-01T11:49:54;45.10;;;42.10;;
60973;SDS011;46846;51.528;5.076;2023-03-01T12:00:31;47.80;;;44.25;;
60973;SDS011;46846;51.528;5.076;2023-03-01T12:22:04;46.13;;;43.05;;
60973;SDS011;46846;51.528;5.076;2023-03-01T12:28:03;50.30;;;46.80;;
60973;SDS011;46846;51.528;5.076;2023-03-01T12:33:12;45.70;;;42.10;;
60973;SDS011;46846;51.528;5.076;2023-03-01T12:38:25;45.22;;;42.22;;
60973;SDS011;46846;51.528;5.076;2023-03-01T12:46:25;50.40;;;47.00;;
60973;SDS011;46846;51.528;5.076;2023-03-01T12:49:05;44.85;;;41.67;;
60973;SDS011;46846;51.528;5.076;2023-03-01T12:51:36;49.58;;;46.20;;
60973;SDS011;46846;51.528;5.076;2023-03-01T12:54:36;48.58;;;44.88;;
60973;SDS011;46846;51.528;5.076;2023-03-01T12:57:18;47.40;;;44.03;;
60973;SDS011;46846;51.528;5.076;2023-03-01T13:11:05;50.15;;;46.90;;
60973;SDS011;46846;51.528;5.076;2023-03-01T13:13:36;51.15;;;47.58;;
60973;SDS011;46846;51.528;5.076;2023-03-01T13:16:47;50.57;;;46.97;;
60973;SDS011;46846;51.528;5.076;2023-03-01T13:19:19;49.50;;;46.00;;
60973;SDS011;46846;51.528;5.076;2023-03-01T13:21:48;49.00;;;45.53;;
60973;SDS011;46846;51.528;5.076;2023-03-01T13:29:46;50.00;;;46.53;;
60973;SDS011;46846;51.528;5.076;2023-03-01T13:34:45;52.28;;;48.63;;
60973;SDS011;46846;51.528;5.076;2023-03-01T13:37:19;48.20;;;45.00;;
60973;SDS011;46846;51.528;5.076;2023-03-01T13:39:46;50.13;;;46.70;;
60973;SDS011;46846;51.528;5.076;2023-03-01T13:42:34;54.15;;;50.15;;
60973;SDS011;46846;51.528;5.076;2023-03-01T13:45:02;51.53;;;47.72;;
60973;SDS011;46846;51.528;5.076;2023-03-01T13:47:30;47.40;;;43.72;;
60973;SDS011;46846;51.528;5.076;2023-03-01T13:49:59;47.80;;;44.20;;
60973;SDS011;46846;51.528;5.076;2023-03-01T13:55:26;50.20;;;46.80;;
60973;SDS011;46846;51.528;5.076;2023-03-01T13:57:57;49.30;;;45.78;;
60973;SDS011;46846;51.528;5.076;2023-03-01T14:00:37;52.13;;;48.60;;
60973;SDS011;46846;51.528;5.076;2023-03-01T14:03:05;51.42;;;47.65;;
60973;SDS011;46846;51.528;5.076;2023-03-01T14:05:34;52.92;;;49.38;;
60973;SDS011;46846;51.528;5.076;2023-03-01T14:08:01;51.45;;;47.72;;
60973;SDS011;46846;51.528;5.076;2023-03-01T14:10:30;47.95;;;44.00;;
60973;SDS011;46846;51.528;5.076;2023-03-01T14:21:33;51.97;;;48.50;;
60973;SDS011;46846;51.528;5.076;2023-03-01T14:24:00;51.13;;;47.65;;
60973;SDS011;46846;51.528;5.076;2023-03-01T14:26:25;55.97;;;52.15;;
60973;SDS011;46846;51.528;5.076;2023-03-01T14:28:51;48.33;;;45.00;;
60973;SDS011;46846;51.528;5.076;2023-03-01T14:34:03;46.30;;;43.20;;
60973;SDS011;46846;51.528;5.076;2023-03-01T14:36:31;52.58;;;48.88;;
60973;SDS011;46846;51.528;5.076;2023-03-01T14:38:58;52.40;;;48.70;;
60973;SDS011;46846;51.528;5.076;2023-03-01T14:41:29;52.97;;;48.67;;
60973;SDS011;46846;51.528;5.076;2023-03-01T14:44:03;50.13;;;46.97;;
60973;SDS011;46846;51.528;5.076;2023-03-01T14:46:37;49.97;;;45.95;;
60973;SDS011;46846;51.528;5.076;2023-03-01T14:49:14;50.75;;;47.38;;
60973;SDS011;46846;51.528;5.076;2023-03-01T14:51:43;50.42;;;47.05;;
60973;SDS011;46846;51.528;5.076;2023-03-01T14:57:00;48.55;;;45.40;;
60973;SDS011;46846;51.528;5.076;2023-03-01T14:59:26;50.10;;;46.70;;
60973;SDS011;46846;51.528;5.076;2023-03-01T15:04:20;49.97;;;46.08;;
60973;SDS011;46846;51.528;5.076;2023-03-01T15:06:47;53.05;;;49.58;;
60973;SDS011;46846;51.528;5.076;2023-03-01T15:09:16;51.45;;;47.88;;
60973;SDS011;46846;51.528;5.076;2023-03-01T15:11:42;52.13;;;48.25;;
60973;SDS011;46846;51.528;5.076;2023-03-01T15:17:18;51.45;;;47.90;;
60973;SDS011;46846;51.528;5.076;2023-03-01T15:19:51;51.97;;;48.58;;
60973;SDS011;46846;51.528;5.076;2023-03-01T15:22:16;54.97;;;51.38;;
60973;SDS011;46846;51.528;5.076;2023-03-01T15:24:46;55.70;;;51.67;;
60973;SDS011;46846;51.528;5.076;2023-03-01T15:27:16;50.70;;;46.90;;
60973;SDS011;46846;51.528;5.076;2023-03-01T15:29:48;53.25;;;49.75;;
60973;SDS011;46846;51.528;5.076;2023-03-01T15:32:31;50.58;;;47.22;;
60973;SDS011;46846;51.528;5.076;2023-03-01T15:34:59;54.83;;;51.10;;
60973;SDS011;46846;51.528;5.076;2023-03-01T15:42:43;49.47;;;46.13;;
60973;SDS011;46846;51.528;5.076;2023-03-01T15:47:52;55.20;;;51.42;;
60973;SDS011;46846;51.528;5.076;2023-03-01T15:50:29;51.33;;;47.42;;
60973;SDS011;46846;51.528;5.076;2023-03-01T15:53:01;50.10;;;46.63;;
60973;SDS011;46846;51.528;5.076;2023-03-01T15:55:31;53.35;;;49.60;;
60973;SDS011;46846;51.528;5.076;2023-03-01T16:00:25;50.33;;;46.97;;
60973;SDS011;46846;51.528;5.076;2023-03-01T16:02:51;55.50;;;51.75;;
60973;SDS011;46846;51.528;5.076;2023-03-01T16:05:35;59.13;;;54.90;;
60973;SDS011;46846;51.528;5.076;2023-03-01T16:08:01;51.70;;;47.88;;
60973;SDS011;46846;51.528;5.076;2023-03-01T16:10:27;54.35;;;50.65;;
60973;SDS011;46846;51.528;5.076;2023-03-01T16:12:53;51.72;;;48.30;;
60973;SDS011;46846;51.528;5.076;2023-03-01T16:17:47;54.30;;;50.83;;
60973;SDS011;46846;51.528;5.076;2023-03-01T16:20:13;56.25;;;52.40;;
60973;SDS011;46846;51.528;5.076;2023-03-01T16:22:41;54.30;;;50.50;;
60973;SDS011;46846;51.528;5.076;2023-03-01T16:25:11;56.85;;;53.15;;
60973;SDS011;46846;51.528;5.076;2023-03-01T16:27:38;58.65;;;54.63;;
60973;SDS011;46846;51.528;5.076;2023-03-01T16:30:05;50.63;;;47.45;;
60973;SDS011;46846;51.528;5.076;2023-03-01T16:32:31;53.90;;;50.22;;
60973;SDS011;46846;51.528;5.076;2023-03-01T16:34:57;55.63;;;51.85;;
60973;SDS011;46846;51.528;5.076;2023-03-01T16:37:22;51.92;;;48.50;;
60973;SDS011;46846;51.528;5.076;2023-03-01T16:39:47;57.53;;;53.87;;
60973;SDS011;46846;51.528;5.076;2023-03-01T16:42:15;56.30;;;52.67;;
60973;SDS011;46846;51.528;5.076;2023-03-01T16:44:41;57.67;;;53.70;;
60973;SDS011;46846;51.528;5.076;2023-03-01T16:47:07;55.80;;;52.10;;
60973;SDS011;46846;51.528;5.076;2023-03-01T16:49:32;56.35;;;51.45;;
60973;SDS011;46846;51.528;5.076;2023-03-01T16:51:57;53.03;;;49.27;;
60973;SDS011;46846;51.528;5.076;2023-03-01T16:56:49;50.25;;;46.63;;
60973;SDS011;46846;51.528;5.076;2023-03-01T16:59:14;56.33;;;51.93;;
60973;SDS011;46846;51.528;5.076;2023-03-01T17:01:40;53.53;;;49.87;;
60973;SDS011;46846;51.528;5.076;2023-03-01T17:06:34;50.45;;;46.83;;
60973;SDS011;46846;51.528;5.076;2023-03-01T17:08:59;51.00;;;47.63;;
60973;SDS011;46846;51.528;5.076;2023-03-01T17:11:25;54.92;;;51.35;;
60973;SDS011;46846;51.528;5.076;2023-03-01T17:13:51;55.63;;;51.90;;
60973;SDS011;46846;51.528;5.076;2023-03-01T17:18:42;47.88;;;44.67;;
60973;SDS011;46846;51.528;5.076;2023-03-01T17:21:08;52.60;;;49.00;;